createdAt,value
2018-09-19T00:02:15.195Z,20.10
2018-09-19T00:04:44.035Z,20.10
2018-09-19T00:07:12.786Z,20.00
2018-09-19T00:09:41.578Z,20.00
2018-09-19T00:12:10.269Z,20.00
2018-09-19T00:14:39.110Z,20.00
2018-09-19T00:17:07.919Z,20.00
2018-09-19T00:19:36.726Z,19.90
2018-09-19T00:22:05.350Z,19.90
2018-09-19T00:24:33.971Z,19.90
2018-09-19T00:27:02.646Z,20.10
2018-09-19T00:29:31.404Z,19.90
2018-09-19T00:32:00.024Z,20.00
2018-09-19T00:34:28.696Z,20.00
2018-09-19T00:36:57.340Z,20.00
2018-09-19T00:39:25.999Z,20.00
2018-09-19T00:41:54.642Z,19.90
2018-09-19T00:44:23.284Z,19.90
2018-09-19T00:46:51.921Z,19.90
2018-09-19T00:49:20.572Z,19.80
2018-09-19T00:51:49.304Z,19.80
2018-09-19T00:54:18.146Z,19.90
2018-09-19T00:56:46.983Z,19.80
2018-09-19T00:59:15.764Z,19.80
2018-09-19T01:01:44.408Z,19.80
2018-09-19T01:04:13.043Z,19.70
2018-09-19T01:06:41.717Z,19.70
2018-09-19T01:09:10.601Z,19.60
2018-09-19T01:11:39.540Z,19.60
2018-09-19T01:14:08.194Z,19.60
2018-09-19T01:16:36.844Z,19.60
2018-09-19T01:19:05.498Z,19.60
2018-09-19T01:21:34.154Z,19.60
2018-09-19T01:24:02.790Z,19.60
2018-09-19T01:26:31.429Z,19.50
2018-09-19T01:29:00.075Z,19.50
2018-09-19T01:31:28.726Z,19.40
2018-09-19T01:33:57.379Z,19.40
2018-09-19T01:36:25.992Z,19.40
2018-09-19T01:38:54.621Z,19.30
2018-09-19T01:41:23.290Z,19.40
2018-09-19T01:43:51.928Z,19.30
2018-09-19T01:46:20.575Z,19.20
2018-09-19T01:48:49.234Z,19.20
2018-09-19T01:51:17.884Z,19.20
2018-09-19T01:53:46.532Z,19.10
2018-09-19T01:56:15.179Z,19.10
2018-09-19T01:58:43.841Z,19.10
2018-09-19T02:01:12.471Z,19.10
2018-09-19T02:03:41.119Z,19.10
2018-09-19T02:06:09.760Z,19.10
2018-09-19T02:08:38.403Z,19.20
2018-09-19T02:11:07.105Z,19.20
2018-09-19T02:13:35.736Z,19.30
2018-09-19T02:16:04.369Z,19.40
2018-09-19T02:18:33.013Z,19.40
2018-09-19T02:21:01.653Z,19.40
2018-09-19T02:23:30.297Z,19.40
2018-09-19T02:25:58.967Z,19.40
2018-09-19T02:28:27.652Z,19.40
2018-09-19T02:30:56.276Z,19.50
2018-09-19T02:33:24.911Z,19.50
2018-09-19T02:35:53.553Z,19.50
2018-09-19T02:38:22.192Z,19.50
2018-09-19T02:40:50.876Z,19.50
2018-09-19T02:43:19.556Z,19.50
2018-09-19T02:45:48.218Z,19.50
2018-09-19T02:48:16.889Z,19.50
2018-09-19T02:50:45.519Z,19.50
2018-09-19T02:53:14.184Z,19.50
2018-09-19T02:55:42.805Z,19.40
2018-09-19T02:58:11.454Z,19.40
2018-09-19T03:00:40.085Z,19.40
2018-09-19T03:03:08.756Z,19.40
2018-09-19T03:05:37.385Z,19.40
2018-09-19T03:08:06.019Z,19.30
2018-09-19T03:10:34.659Z,19.30
2018-09-19T03:13:03.295Z,19.30
2018-09-19T03:15:31.966Z,19.30
2018-09-19T03:18:00.614Z,19.30
2018-09-19T03:20:29.277Z,19.30
2018-09-19T03:22:57.909Z,19.30
2018-09-19T03:25:26.559Z,19.30
2018-09-19T03:27:55.253Z,19.20
2018-09-19T03:30:23.887Z,19.20
2018-09-19T03:32:52.534Z,19.20
2018-09-19T03:35:21.194Z,19.20
2018-09-19T03:37:49.803Z,19.20
2018-09-19T03:40:18.442Z,19.10
2018-09-19T03:42:47.091Z,19.00
2018-09-19T03:45:15.734Z,19.00
2018-09-19T03:47:44.394Z,18.90
2018-09-19T03:50:13.298Z,18.90
2018-09-19T03:52:42.121Z,18.80
2018-09-19T03:55:10.921Z,18.80
2018-09-19T03:57:39.783Z,18.80
2018-09-19T04:00:08.417Z,18.70
2018-09-19T04:02:37.065Z,18.80
2018-09-19T04:05:05.710Z,18.70
2018-09-19T04:07:34.469Z,18.70
2018-09-19T04:10:03.209Z,18.60
2018-09-19T04:12:32.126Z,18.70
2018-09-19T04:15:00.942Z,18.60
2018-09-19T04:17:29.751Z,18.50
2018-09-19T04:19:58.429Z,18.50
2018-09-19T04:22:27.071Z,18.50
2018-09-19T04:24:55.739Z,18.50
2018-09-19T04:27:24.399Z,18.50
2018-09-19T04:29:53.045Z,18.50
2018-09-19T04:32:21.738Z,18.50
2018-09-19T04:34:50.359Z,18.50
2018-09-19T04:37:18.977Z,18.40
2018-09-19T04:39:47.646Z,18.30
2018-09-19T04:42:16.471Z,18.40
2018-09-19T04:44:45.230Z,18.30
2018-09-19T04:47:13.865Z,18.40
2018-09-19T04:49:42.542Z,18.30
2018-09-19T04:52:11.334Z,18.30
2018-09-19T04:54:40.099Z,18.20
2018-09-19T04:57:08.778Z,18.20
2018-09-19T04:59:37.442Z,18.20
2018-09-19T05:02:06.086Z,18.20
2018-09-19T05:04:34.744Z,18.20
2018-09-19T05:07:03.407Z,18.20
2018-09-19T05:09:32.130Z,18.20
2018-09-19T05:12:00.962Z,18.20
2018-09-19T05:14:29.842Z,18.20
2018-09-19T05:17:01.215Z,18.10
2018-09-19T05:19:30.042Z,18.20
2018-09-19T05:21:58.739Z,18.20
2018-09-19T05:24:28.158Z,18.20
2018-09-19T05:26:56.793Z,18.20
2018-09-19T05:29:25.462Z,18.30
2018-09-19T05:31:54.103Z,18.30
2018-09-19T05:34:22.743Z,18.30
2018-09-19T05:36:51.396Z,18.30
2018-09-19T05:39:20.038Z,18.20
2018-09-19T05:41:48.686Z,18.30
2018-09-19T05:44:17.378Z,18.30
2018-09-19T05:46:45.998Z,18.30
2018-09-19T05:49:14.646Z,18.30
2018-09-19T05:51:43.384Z,18.40
2018-09-19T05:54:12.033Z,18.40
2018-09-19T05:56:40.701Z,18.40
2018-09-19T05:59:09.335Z,18.40
2018-09-19T06:01:37.991Z,18.40
2018-09-19T06:04:06.663Z,18.50
2018-09-19T06:06:35.341Z,18.50
2018-09-19T06:09:05.270Z,18.60
2018-09-19T06:11:33.915Z,18.50
2018-09-19T06:14:02.552Z,18.60
2018-09-19T06:16:31.243Z,18.60
2018-09-19T06:19:00.109Z,18.70
2018-09-19T06:21:28.769Z,18.70
2018-09-19T06:23:57.401Z,18.80
2018-09-19T06:26:26.093Z,18.80
2018-09-19T06:28:54.789Z,18.90
2018-09-19T06:31:24.092Z,18.90
2018-09-19T06:33:52.742Z,18.90
2018-09-19T06:36:21.452Z,19.00
2018-09-19T06:38:50.071Z,19.00
2018-09-19T06:41:18.739Z,19.10
2018-09-19T06:43:47.409Z,19.00
2018-09-19T06:46:16.067Z,19.10
2018-09-19T06:48:44.795Z,19.10
2018-09-19T06:51:13.436Z,19.10
2018-09-19T06:53:42.098Z,19.20
2018-09-19T06:56:10.765Z,19.20
2018-09-19T06:58:39.446Z,19.30
2018-09-19T07:01:08.099Z,19.30
2018-09-19T07:03:36.822Z,19.30
2018-09-19T07:06:05.604Z,19.40
2018-09-19T07:08:34.258Z,19.40
2018-09-19T07:11:02.921Z,19.40
2018-09-19T07:13:31.570Z,19.50
2018-09-19T07:16:00.279Z,19.50
2018-09-19T07:18:28.931Z,19.60
2018-09-19T07:20:57.578Z,19.60
2018-09-19T07:23:26.233Z,19.60
2018-09-19T07:25:54.870Z,19.60
2018-09-19T07:28:23.972Z,19.70
2018-09-19T07:30:53.004Z,19.60
2018-09-19T07:33:21.662Z,19.70
2018-09-19T07:35:50.357Z,19.70
2018-09-19T07:38:19.023Z,19.70
2018-09-19T07:40:47.765Z,19.80
2018-09-19T07:43:16.423Z,19.90
2018-09-19T07:45:45.081Z,20.00
2018-09-19T07:48:13.773Z,20.10
2018-09-19T07:50:42.425Z,20.10
2018-09-19T07:53:11.146Z,20.20
2018-09-19T07:55:39.820Z,20.30
2018-09-19T07:58:08.525Z,20.30
2018-09-19T08:00:37.243Z,20.40
2018-09-19T08:03:05.864Z,20.50
2018-09-19T08:05:34.548Z,20.50
2018-09-19T08:08:03.200Z,20.50
2018-09-19T08:10:32.009Z,20.60
2018-09-19T08:13:00.897Z,20.60
2018-09-19T08:15:29.729Z,20.70
2018-09-19T08:17:58.564Z,20.60
2018-09-19T08:20:27.204Z,20.70
2018-09-19T08:22:55.846Z,20.70
2018-09-19T08:25:24.485Z,20.70
2018-09-19T08:27:53.174Z,20.80
2018-09-19T08:30:21.809Z,20.80
2018-09-19T08:32:50.465Z,20.80
2018-09-19T08:35:19.164Z,20.80
2018-09-19T08:37:47.807Z,20.80
2018-09-19T08:40:16.478Z,20.80
2018-09-19T08:42:45.104Z,20.80
2018-09-19T08:45:13.814Z,20.80
2018-09-19T08:47:42.448Z,20.80
2018-09-19T08:50:11.097Z,20.80
2018-09-19T08:52:39.733Z,20.90
2018-09-19T08:55:08.383Z,20.90
2018-09-19T08:57:37.034Z,21.00
2018-09-19T09:00:05.753Z,21.00
2018-09-19T09:02:34.411Z,21.10
2018-09-19T09:05:03.059Z,21.20
2018-09-19T09:07:31.727Z,21.20
2018-09-19T09:10:00.396Z,21.30
2018-09-19T09:12:29.056Z,21.30
2018-09-19T09:14:57.795Z,21.30
2018-09-19T09:17:26.402Z,21.40
2018-09-19T09:19:55.151Z,21.50
2018-09-19T09:22:23.732Z,21.50
2018-09-19T09:24:52.377Z,21.60
2018-09-19T09:27:21.095Z,21.70
2018-09-19T09:29:49.683Z,21.70
2018-09-19T09:34:46.171Z,21.90
2018-09-19T09:37:14.810Z,22.00
2018-09-19T09:39:43.479Z,22.30
2018-09-19T09:42:12.163Z,22.40
2018-09-19T09:47:15.637Z,22.40
2018-09-19T09:49:44.322Z,22.50
2018-09-19T09:52:12.988Z,22.60
2018-09-19T09:54:41.650Z,22.80
2018-09-19T09:57:10.298Z,23.10
2018-09-19T09:59:38.974Z,23.10
2018-09-19T10:02:07.609Z,23.20
2018-09-19T10:04:36.245Z,23.20
2018-09-19T10:07:05.116Z,23.20
2018-09-19T10:09:33.764Z,23.30
2018-09-19T10:12:02.511Z,23.40
2018-09-19T10:14:31.266Z,23.50
2018-09-19T10:16:59.963Z,23.80
2018-09-19T10:19:28.617Z,24.10
2018-09-19T10:21:57.301Z,24.30
2018-09-19T10:24:25.945Z,24.30
2018-09-19T10:26:54.643Z,24.70
2018-09-19T10:29:23.314Z,24.90
2018-09-19T10:31:51.957Z,25.30
2018-09-19T10:34:20.642Z,25.50
2018-09-19T10:36:49.314Z,25.70
2018-09-19T10:39:17.979Z,25.90
2018-09-19T10:41:46.688Z,26.20
2018-09-19T10:44:15.374Z,26.50
2018-09-19T10:46:44.014Z,26.70
2018-09-19T10:49:12.685Z,26.80
2018-09-19T10:51:41.352Z,26.70
2018-09-19T10:54:10.018Z,26.80
2018-09-19T10:56:38.708Z,26.90
2018-09-19T10:59:07.355Z,27.20
2018-09-19T11:01:36.023Z,27.50
2018-09-19T11:04:04.686Z,27.30
2018-09-19T11:06:33.337Z,27.70
2018-09-19T11:09:01.985Z,28.00
2018-09-19T11:11:30.624Z,28.20
2018-09-19T11:13:59.277Z,28.00
2018-09-19T11:16:27.987Z,28.30
2018-09-19T11:18:56.642Z,28.60
2018-09-19T11:21:25.284Z,28.90
2018-09-19T11:23:53.953Z,28.80
2018-09-19T11:26:22.641Z,29.00
2018-09-19T11:28:51.255Z,29.00
2018-09-19T11:31:19.971Z,28.20
2018-09-19T11:33:48.612Z,27.50
2018-09-19T11:36:17.306Z,27.00
2018-09-19T11:38:45.999Z,26.60
2018-09-19T11:41:14.688Z,26.50
2018-09-19T11:43:43.357Z,26.30
2018-09-19T11:46:12.015Z,26.00
2018-09-19T11:48:40.723Z,25.80
2018-09-19T11:51:09.396Z,25.70
2018-09-19T11:53:38.099Z,25.60
2018-09-19T11:56:06.777Z,25.60
2018-09-19T11:58:35.435Z,25.60
2018-09-19T12:01:04.071Z,25.50
2018-09-19T12:03:32.815Z,25.40
2018-09-19T12:06:01.536Z,25.40
2018-09-19T12:08:30.171Z,25.40
2018-09-19T12:10:58.831Z,25.40
2018-09-19T12:13:27.565Z,25.30
2018-09-19T12:15:56.191Z,25.30
2018-09-19T12:18:24.895Z,25.30
2018-09-19T12:20:53.611Z,25.30
2018-09-19T12:23:22.286Z,25.20
2018-09-19T12:25:50.967Z,25.30
2018-09-19T12:28:19.623Z,25.40
2018-09-19T12:30:48.299Z,25.30
2018-09-19T12:33:17.034Z,25.30
2018-09-19T12:35:45.661Z,25.20
2018-09-19T12:38:14.268Z,25.30
2018-09-19T12:40:42.920Z,25.30
2018-09-19T12:43:11.546Z,25.40
2018-09-19T12:45:40.216Z,25.40
2018-09-19T12:48:08.929Z,25.40
2018-09-19T12:50:37.722Z,25.40
2018-09-19T12:53:06.576Z,25.40
2018-09-19T12:55:35.637Z,25.40
2018-09-19T12:58:04.505Z,25.40
2018-09-19T13:00:33.214Z,25.40
2018-09-19T13:03:01.840Z,25.40
2018-09-19T13:05:30.542Z,25.60
2018-09-19T13:07:59.184Z,25.60
2018-09-19T13:10:27.884Z,25.50
2018-09-19T13:12:57.420Z,25.50
2018-09-19T13:15:26.112Z,25.60
2018-09-19T13:17:54.890Z,25.50
2018-09-19T13:20:23.524Z,25.50
2018-09-19T13:22:52.165Z,25.50
2018-09-19T13:25:20.804Z,25.50
2018-09-19T13:27:49.452Z,25.40
2018-09-19T13:30:18.096Z,25.50
2018-09-19T13:32:46.748Z,25.60
2018-09-19T13:35:15.432Z,25.60
2018-09-19T13:37:44.075Z,25.60
2018-09-19T13:40:12.781Z,25.60
2018-09-19T13:42:41.823Z,25.60
2018-09-19T13:45:10.488Z,25.70
2018-09-19T13:47:39.252Z,25.60
2018-09-19T13:50:12.621Z,25.60
2018-09-19T13:52:41.449Z,25.60
2018-09-19T13:55:10.093Z,25.70
2018-09-19T13:57:38.780Z,25.70
2018-09-19T14:00:07.438Z,25.60
2018-09-19T14:02:36.105Z,25.70
2018-09-19T14:05:04.813Z,25.60
2018-09-19T14:07:33.473Z,25.70
2018-09-19T14:10:02.119Z,25.70
2018-09-19T14:12:30.800Z,25.60
2018-09-19T14:14:59.457Z,25.50
2018-09-19T14:17:28.140Z,25.50
2018-09-19T14:19:56.805Z,25.50
2018-09-19T14:22:25.459Z,25.60
2018-09-19T14:24:54.109Z,25.70
2018-09-19T14:27:22.820Z,25.70
2018-09-19T14:29:51.472Z,25.70
2018-09-19T14:32:20.112Z,25.80
2018-09-19T14:34:48.774Z,25.80
2018-09-19T14:37:17.432Z,25.80
2018-09-19T14:39:46.068Z,25.80
2018-09-19T14:42:14.740Z,25.80
2018-09-19T14:44:43.525Z,25.80
2018-09-19T14:47:12.188Z,25.70
2018-09-19T14:49:40.879Z,25.70
2018-09-19T14:52:09.555Z,25.70
2018-09-19T14:54:38.270Z,25.70
2018-09-19T14:57:06.886Z,25.80
2018-09-19T14:59:35.625Z,25.70
2018-09-19T15:02:04.398Z,25.60
2018-09-19T15:04:33.039Z,25.60
2018-09-19T15:07:01.717Z,25.70
2018-09-19T15:09:30.373Z,25.70
2018-09-19T15:11:59.059Z,25.70
2018-09-19T15:14:27.707Z,25.70
2018-09-19T15:16:56.393Z,25.70
2018-09-19T15:19:25.049Z,25.90
2018-09-19T15:21:53.700Z,25.90
2018-09-19T15:24:22.449Z,25.80
2018-09-19T15:26:51.114Z,25.80
2018-09-19T15:29:19.777Z,25.70
2018-09-19T15:31:48.442Z,25.70
2018-09-19T15:34:17.084Z,25.80
2018-09-19T15:36:45.796Z,25.80
2018-09-19T15:39:14.456Z,25.80
2018-09-19T15:41:43.124Z,25.80
2018-09-19T15:44:11.822Z,25.90
2018-09-19T15:46:40.432Z,25.90
2018-09-19T15:49:09.132Z,25.80
2018-09-19T15:51:37.829Z,25.80
2018-09-19T15:54:06.471Z,25.80
2018-09-19T15:56:35.130Z,25.80
2018-09-19T15:59:03.790Z,25.80
2018-09-19T16:01:32.459Z,25.80
2018-09-19T16:04:01.150Z,25.80
2018-09-19T16:06:29.836Z,25.80
2018-09-19T16:08:58.526Z,25.70
2018-09-19T16:11:27.238Z,25.70
2018-09-19T16:13:55.880Z,25.70
2018-09-19T16:16:24.520Z,25.70
2018-09-19T16:18:53.204Z,25.70
2018-09-19T16:21:22.114Z,25.60
2018-09-19T16:23:50.990Z,25.50
2018-09-19T16:26:19.785Z,25.40
2018-09-19T16:28:48.497Z,25.50
2018-09-19T16:31:17.164Z,25.50
2018-09-19T16:33:45.846Z,25.50
2018-09-19T16:36:14.521Z,25.50
2018-09-19T16:38:43.192Z,25.40
2018-09-19T16:41:11.846Z,25.40
2018-09-19T16:43:40.529Z,25.40
2018-09-19T16:46:09.169Z,25.40
2018-09-19T16:48:37.833Z,25.40
2018-09-19T16:51:06.497Z,25.30
2018-09-19T16:53:35.138Z,25.30
2018-09-19T16:56:03.837Z,25.30
2018-09-19T16:58:32.542Z,25.30
2018-09-19T17:01:01.131Z,25.20
2018-09-19T17:03:29.771Z,25.10
2018-09-19T17:05:58.431Z,25.10
2018-09-19T17:08:27.081Z,25.00
2018-09-19T17:10:55.761Z,24.90
2018-09-19T17:13:24.449Z,24.90
2018-09-19T17:15:53.106Z,24.90
2018-09-19T17:18:21.769Z,24.90
2018-09-19T17:20:50.420Z,24.80
2018-09-19T17:23:19.059Z,24.80
2018-09-19T17:25:47.805Z,24.80
2018-09-19T17:28:16.431Z,24.80
2018-09-19T17:30:45.081Z,24.80
2018-09-19T17:33:13.773Z,24.80
2018-09-19T17:35:42.442Z,24.80
2018-09-19T17:38:11.071Z,24.80
2018-09-19T17:40:39.730Z,24.70
2018-09-19T17:43:08.421Z,24.70
2018-09-19T17:45:37.085Z,24.70
2018-09-19T17:48:05.807Z,24.70
2018-09-19T17:50:34.722Z,24.60
2018-09-19T17:53:03.527Z,24.60
2018-09-19T17:55:32.340Z,24.50
2018-09-19T17:58:01.098Z,24.50
2018-09-19T18:00:30.018Z,24.50
2018-09-19T18:02:58.852Z,24.40
2018-09-19T18:05:27.703Z,24.30
2018-09-19T18:07:56.672Z,24.30
2018-09-19T18:10:25.542Z,24.30
2018-09-19T18:12:54.442Z,24.30
2018-09-19T18:15:23.294Z,24.30
2018-09-19T18:17:52.097Z,24.20
2018-09-19T18:20:20.921Z,24.10
2018-09-19T18:22:49.786Z,24.10
2018-09-19T18:25:18.637Z,24.10
2018-09-19T18:27:47.484Z,24.10
2018-09-19T18:30:16.261Z,24.20
2018-09-19T18:32:45.092Z,24.20
2018-09-19T18:35:13.904Z,24.30
2018-09-19T18:37:42.732Z,24.40
2018-09-19T18:40:11.587Z,24.50
2018-09-19T18:42:40.313Z,24.50
2018-09-19T18:45:09.102Z,24.50
2018-09-19T18:47:37.986Z,24.60
2018-09-19T18:50:07.011Z,24.60
2018-09-19T18:52:35.741Z,24.60
2018-09-19T18:55:04.559Z,24.60
2018-09-19T18:57:33.302Z,24.50
2018-09-19T19:00:02.107Z,24.60
2018-09-19T19:02:30.907Z,24.50
2018-09-19T19:04:59.703Z,24.50
2018-09-19T19:07:28.572Z,24.50
2018-09-19T19:09:57.379Z,24.50
2018-09-19T19:12:26.024Z,24.50
2018-09-19T19:14:54.731Z,24.50
2018-09-19T19:17:23.353Z,24.40
2018-09-19T19:19:52.013Z,24.40
2018-09-19T19:22:20.681Z,24.40
2018-09-19T19:24:49.331Z,24.40
2018-09-19T19:27:17.975Z,24.30
2018-09-19T19:29:46.629Z,24.30
2018-09-19T19:32:15.322Z,24.30
2018-09-19T19:34:44.011Z,24.30
2018-09-19T19:37:12.649Z,24.20
2018-09-19T19:39:41.284Z,24.20
2018-09-19T19:42:09.933Z,24.20
2018-09-19T19:44:38.621Z,24.10
2018-09-19T19:47:07.242Z,24.10
2018-09-19T19:49:35.891Z,24.10
2018-09-19T19:52:04.530Z,24.10
2018-09-19T19:54:33.188Z,24.10
2018-09-19T19:57:01.844Z,24.10
2018-09-19T19:59:30.494Z,24.00
2018-09-19T20:01:59.150Z,24.00
2018-09-19T20:04:27.802Z,24.00
2018-09-19T20:06:56.513Z,23.90
2018-09-19T20:09:25.136Z,23.90
2018-09-19T20:11:53.798Z,23.90
2018-09-19T20:14:22.453Z,23.90
2018-09-19T20:16:51.128Z,23.90
2018-09-19T20:19:20.601Z,23.80
2018-09-19T20:21:49.255Z,23.80
2018-09-19T20:24:17.910Z,23.70
2018-09-19T20:26:46.534Z,23.70
2018-09-19T20:29:15.187Z,23.70
2018-09-19T20:31:43.828Z,23.70
2018-09-19T20:34:12.556Z,23.70
2018-09-19T20:36:41.140Z,23.70
2018-09-19T20:39:10.677Z,23.70
2018-09-19T20:41:39.366Z,23.70
2018-09-19T20:44:08.047Z,23.60
2018-09-19T20:46:36.765Z,23.60
2018-09-19T20:49:05.464Z,23.60
2018-09-19T20:51:34.159Z,23.50
2018-09-19T20:54:02.870Z,23.50
2018-09-19T20:56:31.505Z,23.50
2018-09-19T20:59:00.155Z,23.40
2018-09-19T21:01:28.777Z,23.40
2018-09-19T21:03:57.437Z,23.40
2018-09-19T21:06:26.077Z,23.40
2018-09-19T21:08:54.707Z,23.40
2018-09-19T21:11:23.338Z,23.30
2018-09-19T21:13:51.987Z,23.30
2018-09-19T21:16:20.635Z,23.20
2018-09-19T21:18:49.285Z,23.20
2018-09-19T21:21:17.945Z,23.20
2018-09-19T21:23:46.597Z,23.20
2018-09-19T21:26:15.242Z,23.20
2018-09-19T21:28:43.875Z,23.20
2018-09-19T21:31:12.520Z,23.20
2018-09-19T21:33:41.175Z,23.20
2018-09-19T21:36:09.821Z,23.20
2018-09-19T21:38:38.451Z,23.20
2018-09-19T21:41:07.101Z,23.20
2018-09-19T21:43:35.735Z,23.10
2018-09-19T21:46:11.090Z,23.10
2018-09-19T21:48:39.767Z,23.10
2018-09-19T21:51:08.631Z,23.00
2018-09-19T21:53:37.276Z,23.00
2018-09-19T21:56:05.925Z,23.00
2018-09-19T21:58:34.565Z,22.90
2018-09-19T22:01:08.600Z,23.00
2018-09-19T22:03:38.616Z,23.00
2018-09-19T22:06:07.426Z,23.00
2018-09-19T22:08:37.004Z,23.00
2018-09-19T22:11:06.139Z,23.00
2018-09-19T22:13:34.962Z,23.00
2018-09-19T22:16:03.704Z,23.00
2018-09-19T22:18:32.474Z,22.90
2018-09-19T22:21:01.174Z,22.80
2018-09-19T22:23:29.801Z,22.80
2018-09-19T22:25:58.542Z,22.80
2018-09-19T22:28:27.332Z,22.80
2018-09-19T22:30:55.993Z,22.80
2018-09-19T22:33:24.774Z,22.70
2018-09-19T22:35:53.455Z,22.70
2018-09-19T22:38:22.202Z,22.60
2018-09-19T22:40:50.895Z,22.70
2018-09-19T22:43:19.624Z,22.70
2018-09-19T22:45:48.306Z,22.60
2018-09-19T22:48:16.956Z,22.60
2018-09-19T22:50:45.597Z,22.60
2018-09-19T22:53:14.238Z,22.60
2018-09-19T22:55:42.878Z,22.60
2018-09-19T22:58:18.259Z,22.60
2018-09-19T23:00:47.096Z,22.60
2018-09-19T23:03:15.920Z,22.60
2018-09-19T23:05:44.714Z,22.50
2018-09-19T23:08:13.536Z,22.50
2018-09-19T23:10:42.182Z,22.40
2018-09-19T23:13:10.812Z,22.50
2018-09-19T23:15:39.452Z,22.40
2018-09-19T23:18:08.085Z,22.40
2018-09-19T23:20:36.742Z,22.40
2018-09-19T23:23:05.436Z,22.40
2018-09-19T23:25:34.202Z,22.30
2018-09-19T23:28:02.816Z,22.30
2018-09-19T23:30:31.646Z,22.30
2018-09-19T23:33:00.457Z,22.20
2018-09-19T23:35:29.188Z,22.20
2018-09-19T23:37:58.027Z,22.20
2018-09-19T23:40:26.673Z,22.10
2018-09-19T23:42:55.314Z,22.10
2018-09-19T23:45:24.100Z,22.00
2018-09-19T23:47:52.743Z,22.00
2018-09-19T23:50:21.382Z,21.90
2018-09-19T23:52:49.996Z,21.90
2018-09-19T23:55:18.668Z,21.90
2018-09-19T23:57:47.383Z,21.90
